sensor_id;sensor_type;location;lat;lon;timestamp;P1;durP1;ratioP1;P2;durP2;ratioP2
18796;SDS011;9526;52.612;13.300;2023-07-24T00:00:43;5.05;;;2.42;;
18796;SDS011;9526;52.612;13.300;2023-07-24T00:03:08;3.88;;;2.35;;
18796;SDS011;9526;52.612;13.300;2023-07-24T00:05:32;3.88;;;2.53;;
18796;SDS011;9526;52.612;13.300;2023-07-24T00:07:56;4.00;;;2.60;;
18796;SDS011;9526;52.612;13.300;2023-07-24T00:10:19;4.57;;;2.83;;
18796;SDS011;9526;52.612;13.300;2023-07-24T00:12:43;5.95;;;3.13;;
18796;SDS011;9526;52.612;13.300;2023-07-24T00:15:07;3.75;;;2.70;;
18796;SDS011;9526;52.612;13.300;2023-07-24T00:17:31;3.20;;;2.20;;
18796;SDS011;9526;52.612;13.300;2023-07-24T00:19:56;3.88;;;2.33;;
18796;SDS011;9526;52.612;13.300;2023-07-24T00:22:20;4.60;;;2.72;;
18796;SDS011;9526;52.612;13.300;2023-07-24T00:24:44;4.43;;;2.80;;
18796;SDS011;9526;52.612;13.300;2023-07-24T00:27:07;5.38;;;2.80;;
18796;SDS011;9526;52.612;13.300;2023-07-24T00:29:31;5.82;;;2.85;;
18796;SDS011;9526;52.612;13.300;2023-07-24T00:31:55;5.95;;;2.92;;
18796;SDS011;9526;52.612;13.300;2023-07-24T00:34:18;6.40;;;2.83;;
18796;SDS011;9526;52.612;13.300;2023-07-24T00:36:43;3.10;;;2.38;;
18796;SDS011;9526;52.612;13.300;2023-07-24T00:39:07;3.72;;;2.58;;
18796;SDS011;9526;52.612;13.300;2023-07-24T00:41:31;4.25;;;2.30;;
18796;SDS011;9526;52.612;13.300;2023-07-24T00:43:54;6.50;;;2.60;;
18796;SDS011;9526;52.612;13.300;2023-07-24T00:46:18;4.70;;;2.58;;
18796;SDS011;9526;52.612;13.300;2023-07-24T00:48:42;7.10;;;2.53;;
18796;SDS011;9526;52.612;13.300;2023-07-24T00:51:06;3.15;;;2.22;;
18796;SDS011;9526;52.612;13.300;2023-07-24T00:53:31;3.55;;;2.15;;
18796;SDS011;9526;52.612;13.300;2023-07-24T00:55:55;4.05;;;2.65;;
18796;SDS011;9526;52.612;13.300;2023-07-24T00:58:21;3.78;;;2.30;;
18796;SDS011;9526;52.612;13.300;2023-07-24T01:00:45;6.78;;;2.88;;
18796;SDS011;9526;52.612;13.300;2023-07-24T01:03:09;5.05;;;2.28;;
18796;SDS011;9526;52.612;13.300;2023-07-24T01:05:34;3.10;;;2.40;;
18796;SDS011;9526;52.612;13.300;2023-07-24T01:07:57;3.15;;;2.03;;
18796;SDS011;9526;52.612;13.300;2023-07-24T01:10:22;3.30;;;2.30;;
18796;SDS011;9526;52.612;13.300;2023-07-24T01:12:49;3.25;;;2.20;;
18796;SDS011;9526;52.612;13.300;2023-07-24T01:15:22;4.20;;;2.10;;
18796;SDS011;9526;52.612;13.300;2023-07-24T01:18:07;3.85;;;2.30;;
18796;SDS011;9526;52.612;13.300;2023-07-24T01:20:32;3.17;;;2.53;;
18796;SDS011;9526;52.612;13.300;2023-07-24T01:23:04;3.67;;;2.30;;
18796;SDS011;9526;52.612;13.300;2023-07-24T01:25:48;3.55;;;2.42;;
18796;SDS011;9526;52.612;13.300;2023-07-24T01:28:19;3.42;;;2.05;;
18796;SDS011;9526;52.612;13.300;2023-07-24T01:30:42;2.70;;;1.88;;
18796;SDS011;9526;52.612;13.300;2023-07-24T01:33:06;3.10;;;2.40;;
18796;SDS011;9526;52.612;13.300;2023-07-24T01:35:30;5.07;;;2.72;;
18796;SDS011;9526;52.612;13.300;2023-07-24T01:37:55;3.63;;;2.17;;
18796;SDS011;9526;52.612;13.300;2023-07-24T01:40:20;7.47;;;2.85;;
18796;SDS011;9526;52.612;13.300;2023-07-24T01:42:46;2.80;;;2.08;;
18796;SDS011;9526;52.612;13.300;2023-07-24T01:45:11;3.67;;;2.30;;
18796;SDS011;9526;52.612;13.300;2023-07-24T01:47:34;4.47;;;2.80;;
18796;SDS011;9526;52.612;13.300;2023-07-24T01:49:58;3.90;;;2.50;;
18796;SDS011;9526;52.612;13.300;2023-07-24T01:52:22;5.07;;;2.17;;
18796;SDS011;9526;52.612;13.300;2023-07-24T01:54:46;3.88;;;2.35;;
18796;SDS011;9526;52.612;13.300;2023-07-24T01:57:10;3.75;;;2.33;;
18796;SDS011;9526;52.612;13.300;2023-07-24T01:59:35;4.07;;;2.47;;
18796;SDS011;9526;52.612;13.300;2023-07-24T02:01:58;6.90;;;2.58;;
18796;SDS011;9526;52.612;13.300;2023-07-24T02:04:22;3.72;;;2.40;;
18796;SDS011;9526;52.612;13.300;2023-07-24T02:06:46;3.88;;;2.55;;
18796;SDS011;9526;52.612;13.300;2023-07-24T02:09:10;3.70;;;2.30;;
18796;SDS011;9526;52.612;13.300;2023-07-24T02:11:33;5.78;;;2.60;;
18796;SDS011;9526;52.612;13.300;2023-07-24T02:13:57;4.35;;;2.28;;
18796;SDS011;9526;52.612;13.300;2023-07-24T02:16:23;4.75;;;2.20;;
18796;SDS011;9526;52.612;13.300;2023-07-24T02:18:46;3.30;;;2.40;;
18796;SDS011;9526;52.612;13.300;2023-07-24T02:21:10;4.25;;;2.35;;
18796;SDS011;9526;52.612;13.300;2023-07-24T02:23:34;3.28;;;2.30;;
18796;SDS011;9526;52.612;13.300;2023-07-24T02:25:59;3.03;;;2.20;;
18796;SDS011;9526;52.612;13.300;2023-07-24T02:28:22;3.72;;;2.33;;
18796;SDS011;9526;52.612;13.300;2023-07-24T02:30:46;3.70;;;2.10;;
18796;SDS011;9526;52.612;13.300;2023-07-24T02:33:12;2.28;;;1.90;;
18796;SDS011;9526;52.612;13.300;2023-07-24T02:35:38;2.90;;;2.20;;
18796;SDS011;9526;52.612;13.300;2023-07-24T02:38:02;2.58;;;2.10;;
18796;SDS011;9526;52.612;13.300;2023-07-24T02:40:26;2.22;;;1.90;;
18796;SDS011;9526;52.612;13.300;2023-07-24T02:42:49;2.67;;;1.98;;
18796;SDS011;9526;52.612;13.300;2023-07-24T02:45:13;2.80;;;2.05;;
18796;SDS011;9526;52.612;13.300;2023-07-24T02:47:36;3.13;;;2.03;;
18796;SDS011;9526;52.612;13.300;2023-07-24T02:50:02;3.05;;;1.92;;
18796;SDS011;9526;52.612;13.300;2023-07-24T02:52:26;2.45;;;1.75;;
18796;SDS011;9526;52.612;13.300;2023-07-24T02:54:50;3.42;;;1.90;;
18796;SDS011;9526;52.612;13.300;2023-07-24T02:57:13;3.40;;;1.92;;
18796;SDS011;9526;52.612;13.300;2023-07-24T02:59:37;2.78;;;1.92;;
18796;SDS011;9526;52.612;13.300;2023-07-24T03:02:01;3.72;;;2.10;;
18796;SDS011;9526;52.612;13.300;2023-07-24T03:04:25;2.63;;;1.88;;
18796;SDS011;9526;52.612;13.300;2023-07-24T03:06:50;3.80;;;2.10;;
18796;SDS011;9526;52.612;13.300;2023-07-24T03:09:15;2.70;;;1.92;;
18796;SDS011;9526;52.612;13.300;2023-07-24T03:11:39;4.03;;;2.08;;
18796;SDS011;9526;52.612;13.300;2023-07-24T03:14:02;4.75;;;1.88;;
18796;SDS011;9526;52.612;13.300;2023-07-24T03:16:26;4.18;;;2.17;;
18796;SDS011;9526;52.612;13.300;2023-07-24T03:18:50;3.47;;;1.75;;
18796;SDS011;9526;52.612;13.300;2023-07-24T03:21:13;5.18;;;1.98;;
18796;SDS011;9526;52.612;13.300;2023-07-24T03:23:39;2.92;;;2.03;;
18796;SDS011;9526;52.612;13.300;2023-07-24T03:26:02;2.78;;;2.00;;
18796;SDS011;9526;52.612;13.300;2023-07-24T03:28:26;4.97;;;2.22;;
18796;SDS011;9526;52.612;13.300;2023-07-24T03:30:50;2.15;;;1.70;;
18796;SDS011;9526;52.612;13.300;2023-07-24T03:33:14;3.30;;;1.98;;
18796;SDS011;9526;52.612;13.300;2023-07-24T03:35:39;2.63;;;1.92;;
18796;SDS011;9526;52.612;13.300;2023-07-24T03:38:02;2.55;;;1.85;;
18796;SDS011;9526;52.612;13.300;2023-07-24T03:40:27;2.35;;;1.75;;
18796;SDS011;9526;52.612;13.300;2023-07-24T03:42:51;3.05;;;1.88;;
18796;SDS011;9526;52.612;13.300;2023-07-24T03:45:16;2.78;;;1.80;;
18796;SDS011;9526;52.612;13.300;2023-07-24T03:47:39;2.55;;;1.70;;
18796;SDS011;9526;52.612;13.300;2023-07-24T03:50:04;1.63;;;1.45;;
18796;SDS011;9526;52.612;13.300;2023-07-24T03:52:28;3.95;;;1.63;;
18796;SDS011;9526;52.612;13.300;2023-07-24T03:54:52;2.45;;;1.58;;
18796;SDS011;9526;52.612;13.300;2023-07-24T03:57:17;2.30;;;1.73;;
18796;SDS011;9526;52.612;13.300;2023-07-24T03:59:41;1.92;;;1.42;;
18796;SDS011;9526;52.612;13.300;2023-07-24T04:02:04;2.55;;;1.90;;
18796;SDS011;9526;52.612;13.300;2023-07-24T04:04:31;3.83;;;1.73;;
18796;SDS011;9526;52.612;13.300;2023-07-24T04:06:55;3.20;;;1.80;;
18796;SDS011;9526;52.612;13.300;2023-07-24T04:09:19;3.47;;;1.35;;
18796;SDS011;9526;52.612;13.300;2023-07-24T04:11:43;2.38;;;1.77;;
18796;SDS011;9526;52.612;13.300;2023-07-24T04:14:08;2.40;;;1.40;;
18796;SDS011;9526;52.612;13.300;2023-07-24T04:16:32;2.30;;;1.58;;
18796;SDS011;9526;52.612;13.300;2023-07-24T04:18:56;2.40;;;1.42;;
18796;SDS011;9526;52.612;13.300;2023-07-24T04:21:20;2.00;;;1.38;;
18796;SDS011;9526;52.612;13.300;2023-07-24T04:23:44;1.98;;;1.50;;
18796;SDS011;9526;52.612;13.300;2023-07-24T04:26:08;2.45;;;1.30;;
18796;SDS011;9526;52.612;13.300;2023-07-24T04:28:32;2.83;;;1.30;;
18796;SDS011;9526;52.612;13.300;2023-07-24T04:31:00;2.83;;;1.40;;
18796;SDS011;9526;52.612;13.300;2023-07-24T04:33:24;1.90;;;1.23;;
18796;SDS011;9526;52.612;13.300;2023-07-24T04:35:48;3.58;;;1.73;;
18796;SDS011;9526;52.612;13.300;2023-07-24T04:38:12;2.85;;;1.42;;
18796;SDS011;9526;52.612;13.300;2023-07-24T04:40:36;2.45;;;1.50;;
18796;SDS011;9526;52.612;13.300;2023-07-24T04:42:59;2.40;;;1.50;;
18796;SDS011;9526;52.612;13.300;2023-07-24T04:45:23;1.90;;;1.20;;
18796;SDS011;9526;52.612;13.300;2023-07-24T04:47:48;2.20;;;1.30;;
18796;SDS011;9526;52.612;13.300;2023-07-24T04:50:12;2.92;;;1.60;;
18796;SDS011;9526;52.612;13.300;2023-07-24T04:52:35;1.92;;;1.35;;
18796;SDS011;9526;52.612;13.300;2023-07-24T04:54:59;1.45;;;1.33;;
18796;SDS011;9526;52.612;13.300;2023-07-24T04:57:23;3.60;;;1.58;;
18796;SDS011;9526;52.612;13.300;2023-07-24T04:59:46;2.95;;;1.58;;
18796;SDS011;9526;52.612;13.300;2023-07-24T05:02:10;3.03;;;1.42;;
18796;SDS011;9526;52.612;13.300;2023-07-24T05:04:35;1.77;;;1.35;;
18796;SDS011;9526;52.612;13.300;2023-07-24T05:06:59;2.10;;;1.35;;
18796;SDS011;9526;52.612;13.300;2023-07-24T05:09:22;2.63;;;1.42;;
18796;SDS011;9526;52.612;13.300;2023-07-24T05:11:46;1.52;;;1.20;;
18796;SDS011;9526;52.612;13.300;2023-07-24T05:14:10;2.42;;;1.35;;
18796;SDS011;9526;52.612;13.300;2023-07-24T05:16:33;1.75;;;1.35;;
18796;SDS011;9526;52.612;13.300;2023-07-24T05:18:57;2.17;;;1.40;;
18796;SDS011;9526;52.612;13.300;2023-07-24T05:21:22;4.03;;;1.30;;
18796;SDS011;9526;52.612;13.300;2023-07-24T05:23:46;1.33;;;1.17;;
18796;SDS011;9526;52.612;13.300;2023-07-24T05:26:09;1.65;;;1.20;;
18796;SDS011;9526;52.612;13.300;2023-07-24T05:28:33;2.65;;;1.40;;
18796;SDS011;9526;52.612;13.300;2023-07-24T05:30:59;2.78;;;1.30;;
18796;SDS011;9526;52.612;13.300;2023-07-24T05:33:24;2.38;;;1.35;;
18796;SDS011;9526;52.612;13.300;2023-07-24T05:35:48;1.52;;;1.00;;
18796;SDS011;9526;52.612;13.300;2023-07-24T05:38:13;1.50;;;1.17;;
18796;SDS011;9526;52.612;13.300;2023-07-24T05:40:37;1.80;;;1.30;;
18796;SDS011;9526;52.612;13.300;2023-07-24T05:43:01;1.42;;;1.15;;
18796;SDS011;9526;52.612;13.300;2023-07-24T05:45:26;1.52;;;1.13;;
18796;SDS011;9526;52.612;13.300;2023-07-24T05:47:50;1.63;;;1.25;;
18796;SDS011;9526;52.612;13.300;2023-07-24T05:50:13;1.40;;;1.15;;
18796;SDS011;9526;52.612;13.300;2023-07-24T05:52:37;1.20;;;1.10;;
18796;SDS011;9526;52.612;13.300;2023-07-24T05:55:02;1.55;;;1.20;;
18796;SDS011;9526;52.612;13.300;2023-07-24T05:57:26;2.45;;;1.50;;
18796;SDS011;9526;52.612;13.300;2023-07-24T05:59:50;1.63;;;1.35;;
18796;SDS011;9526;52.612;13.300;2023-07-24T06:02:14;1.48;;;1.25;;
18796;SDS011;9526;52.612;13.300;2023-07-24T06:04:38;1.52;;;1.35;;
18796;SDS011;9526;52.612;13.300;2023-07-24T06:07:02;1.50;;;1.23;;
18796;SDS011;9526;52.612;13.300;2023-07-24T06:09:26;1.70;;;1.50;;
18796;SDS011;9526;52.612;13.300;2023-07-24T06:11:51;1.48;;;1.27;;
18796;SDS011;9526;52.612;13.300;2023-07-24T06:14:15;2.25;;;1.40;;
18796;SDS011;9526;52.612;13.300;2023-07-24T06:16:39;1.30;;;1.20;;
18796;SDS011;9526;52.612;13.300;2023-07-24T06:19:02;1.92;;;1.40;;
18796;SDS011;9526;52.612;13.300;2023-07-24T06:21:26;2.30;;;1.50;;
18796;SDS011;9526;52.612;13.300;2023-07-24T06:23:50;1.42;;;1.20;;
18796;SDS011;9526;52.612;13.300;2023-07-24T06:26:13;1.30;;;1.20;;
18796;SDS011;9526;52.612;13.300;2023-07-24T06:28:38;1.85;;;1.40;;
18796;SDS011;9526;52.612;13.300;2023-07-24T06:31:02;1.55;;;1.30;;
18796;SDS011;9526;52.612;13.300;2023-07-24T06:33:26;2.35;;;1.20;;
18796;SDS011;9526;52.612;13.300;2023-07-24T06:35:49;1.65;;;1.30;;
18796;SDS011;9526;52.612;13.300;2023-07-24T06:38:13;1.73;;;1.50;;
18796;SDS011;9526;52.612;13.300;2023-07-24T06:40:37;3.40;;;1.58;;
18796;SDS011;9526;52.612;13.300;2023-07-24T06:43:00;2.85;;;1.70;;
18796;SDS011;9526;52.612;13.300;2023-07-24T06:45:25;2.97;;;1.38;;
18796;SDS011;9526;52.612;13.300;2023-07-24T06:47:49;1.58;;;1.40;;
18796;SDS011;9526;52.612;13.300;2023-07-24T06:50:13;1.63;;;1.50;;
18796;SDS011;9526;52.612;13.300;2023-07-24T06:52:36;1.98;;;1.40;;
18796;SDS011;9526;52.612;13.300;2023-07-24T06:55:00;1.60;;;1.48;;
18796;SDS011;9526;52.612;13.300;2023-07-24T06:57:24;2.00;;;1.55;;
18796;SDS011;9526;52.612;13.300;2023-07-24T06:59:48;1.90;;;1.40;;
18796;SDS011;9526;52.612;13.300;2023-07-24T07:02:16;1.42;;;1.23;;
18796;SDS011;9526;52.612;13.300;2023-07-24T07:04:40;1.60;;;1.20;;
18796;SDS011;9526;52.612;13.300;2023-07-24T07:07:04;2.33;;;1.35;;
18796;SDS011;9526;52.612;13.300;2023-07-24T07:09:28;1.38;;;1.27;;
18796;SDS011;9526;52.612;13.300;2023-07-24T07:11:52;1.42;;;1.23;;
18796;SDS011;9526;52.612;13.300;2023-07-24T07:14:16;1.50;;;1.35;;
18796;SDS011;9526;52.612;13.300;2023-07-24T07:16:40;1.63;;;1.38;;
18796;SDS011;9526;52.612;13.300;2023-07-24T07:19:05;1.63;;;1.40;;
18796;SDS011;9526;52.612;13.300;2023-07-24T07:21:30;1.55;;;1.27;;
18796;SDS011;9526;52.612;13.300;2023-07-24T07:23:54;1.45;;;1.30;;
18796;SDS011;9526;52.612;13.300;2023-07-24T07:26:18;1.98;;;1.55;;
18796;SDS011;9526;52.612;13.300;2023-07-24T07:28:41;2.38;;;1.63;;
18796;SDS011;9526;52.612;13.300;2023-07-24T07:31:06;1.75;;;1.45;;
18796;SDS011;9526;52.612;13.300;2023-07-24T07:33:30;1.60;;;1.50;;
18796;SDS011;9526;52.612;13.300;2023-07-24T07:35:55;2.00;;;1.45;;
18796;SDS011;9526;52.612;13.300;2023-07-24T07:38:20;1.45;;;1.35;;
18796;SDS011;9526;52.612;13.300;2023-07-24T07:40:44;3.95;;;1.75;;
18796;SDS011;9526;52.612;13.300;2023-07-24T07:43:08;1.70;;;1.60;;
18796;SDS011;9526;52.612;13.300;2023-07-24T07:45:31;1.88;;;1.50;;
18796;SDS011;9526;52.612;13.300;2023-07-24T07:47:55;1.92;;;1.70;;
18796;SDS011;9526;52.612;13.300;2023-07-24T07:50:19;2.42;;;1.35;;
18796;SDS011;9526;52.612;13.300;2023-07-24T07:52:44;2.20;;;1.67;;
18796;SDS011;9526;52.612;13.300;2023-07-24T07:55:08;1.80;;;1.42;;
18796;SDS011;9526;52.612;13.300;2023-07-24T07:57:33;1.83;;;1.48;;
18796;SDS011;9526;52.612;13.300;2023-07-24T07:59:57;1.88;;;1.35;;
18796;SDS011;9526;52.612;13.300;2023-07-24T08:02:21;2.28;;;1.63;;
18796;SDS011;9526;52.612;13.300;2023-07-24T08:04:45;2.28;;;1.48;;
18796;SDS011;9526;52.612;13.300;2023-07-24T08:07:08;1.92;;;1.60;;
18796;SDS011;9526;52.612;13.300;2023-07-24T08:09:33;2.05;;;1.52;;
18796;SDS011;9526;52.612;13.300;2023-07-24T08:11:57;1.45;;;1.25;;
18796;SDS011;9526;52.612;13.300;2023-07-24T08:14:21;2.22;;;1.45;;
18796;SDS011;9526;52.612;13.300;2023-07-24T08:16:44;2.30;;;1.25;;
18796;SDS011;9526;52.612;13.300;2023-07-24T08:19:11;1.30;;;1.20;;
18796;SDS011;9526;52.612;13.300;2023-07-24T08:21:35;1.85;;;1.25;;
18796;SDS011;9526;52.612;13.300;2023-07-24T08:24:00;2.97;;;1.35;;
18796;SDS011;9526;52.612;13.300;2023-07-24T08:26:25;1.35;;;1.25;;
18796;SDS011;9526;52.612;13.300;2023-07-24T08:28:50;3.45;;;1.50;;
18796;SDS011;9526;52.612;13.300;2023-07-24T08:31:13;1.40;;;1.20;;
18796;SDS011;9526;52.612;13.300;2023-07-24T08:33:37;1.60;;;1.40;;
18796;SDS011;9526;52.612;13.300;2023-07-24T08:36:01;3.45;;;1.30;;
18796;SDS011;9526;52.612;13.300;2023-07-24T08:38:26;1.60;;;1.30;;
18796;SDS011;9526;52.612;13.300;2023-07-24T08:40:59;1.52;;;1.27;;
18796;SDS011;9526;52.612;13.300;2023-07-24T08:43:26;1.90;;;1.40;;
18796;SDS011;9526;52.612;13.300;2023-07-24T08:45:51;1.40;;;1.27;;
18796;SDS011;9526;52.612;13.300;2023-07-24T08:48:15;1.67;;;1.25;;
18796;SDS011;9526;52.612;13.300;2023-07-24T08:50:41;1.30;;;1.20;;
18796;SDS011;9526;52.612;13.300;2023-07-24T08:53:05;1.58;;;1.20;;
18796;SDS011;9526;52.612;13.300;2023-07-24T08:55:29;1.98;;;1.50;;
18796;SDS011;9526;52.612;13.300;2023-07-24T08:57:53;1.80;;;1.42;;
18796;SDS011;9526;52.612;13.300;2023-07-24T09:00:18;2.33;;;1.50;;
18796;SDS011;9526;52.612;13.300;2023-07-24T09:02:42;1.75;;;1.50;;
18796;SDS011;9526;52.612;13.300;2023-07-24T09:05:06;1.85;;;1.60;;
18796;SDS011;9526;52.612;13.300;2023-07-24T09:07:31;4.22;;;1.40;;
18796;SDS011;9526;52.612;13.300;2023-07-24T09:09:55;2.38;;;1.52;;
18796;SDS011;9526;52.612;13.300;2023-07-24T09:12:18;1.70;;;1.38;;
18796;SDS011;9526;52.612;13.300;2023-07-24T09:14:44;2.92;;;1.48;;
18796;SDS011;9526;52.612;13.300;2023-07-24T09:17:10;2.15;;;1.73;;
18796;SDS011;9526;52.612;13.300;2023-07-24T09:19:34;2.15;;;1.65;;
18796;SDS011;9526;52.612;13.300;2023-07-24T09:22:08;3.70;;;1.73;;
18796;SDS011;9526;52.612;13.300;2023-07-24T09:24:34;1.52;;;1.33;;
18796;SDS011;9526;52.612;13.300;2023-07-24T09:26:58;2.00;;;1.42;;
18796;SDS011;9526;52.612;13.300;2023-07-24T09:29:22;2.88;;;1.58;;
18796;SDS011;9526;52.612;13.300;2023-07-24T09:31:54;1.60;;;1.35;;
18796;SDS011;9526;52.612;13.300;2023-07-24T09:34:19;1.65;;;1.48;;
18796;SDS011;9526;52.612;13.300;2023-07-24T09:36:43;2.33;;;1.50;;
18796;SDS011;9526;52.612;13.300;2023-07-24T09:39:07;1.75;;;1.60;;
18796;SDS011;9526;52.612;13.300;2023-07-24T09:41:33;1.88;;;1.50;;
18796;SDS011;9526;52.612;13.300;2023-07-24T09:43:57;2.13;;;1.50;;
18796;SDS011;9526;52.612;13.300;2023-07-24T09:46:22;3.70;;;1.67;;
18796;SDS011;9526;52.612;13.300;2023-07-24T09:48:49;2.10;;;1.30;;
18796;SDS011;9526;52.612;13.300;2023-07-24T09:51:17;2.17;;;1.50;;
18796;SDS011;9526;52.612;13.300;2023-07-24T09:53:43;1.85;;;1.60;;
18796;SDS011;9526;52.612;13.300;2023-07-24T09:56:13;1.88;;;1.67;;
18796;SDS011;9526;52.612;13.300;2023-07-24T09:58:49;2.17;;;1.50;;
18796;SDS011;9526;52.612;13.300;2023-07-24T10:01:16;2.05;;;1.63;;
18796;SDS011;9526;52.612;13.300;2023-07-24T10:03:43;2.25;;;1.70;;
18796;SDS011;9526;52.612;13.300;2023-07-24T10:06:09;1.98;;;1.60;;
18796;SDS011;9526;52.612;13.300;2023-07-24T10:08:37;3.00;;;1.67;;
18796;SDS011;9526;52.612;13.300;2023-07-24T10:11:02;3.47;;;1.73;;
18796;SDS011;9526;52.612;13.300;2023-07-24T10:13:26;2.35;;;1.75;;
18796;SDS011;9526;52.612;13.300;2023-07-24T10:15:51;2.17;;;1.45;;
18796;SDS011;9526;52.612;13.300;2023-07-24T10:18:16;2.65;;;1.65;;
18796;SDS011;9526;52.612;13.300;2023-07-24T10:20:40;2.15;;;1.63;;
18796;SDS011;9526;52.612;13.300;2023-07-24T10:23:05;2.78;;;1.77;;
18796;SDS011;9526;52.612;13.300;2023-07-24T10:25:33;2.28;;;1.45;;
18796;SDS011;9526;52.612;13.300;2023-07-24T10:28:05;2.95;;;1.90;;
18796;SDS011;9526;52.612;13.300;2023-07-24T10:30:32;5.13;;;2.13;;
18796;SDS011;9526;52.612;13.300;2023-07-24T10:33:05;2.83;;;1.70;;
18796;SDS011;9526;52.612;13.300;2023-07-24T10:35:36;4.05;;;1.90;;
18796;SDS011;9526;52.612;13.300;2023-07-24T10:38:04;2.50;;;1.80;;
18796;SDS011;9526;52.612;13.300;2023-07-24T10:40:28;2.45;;;1.67;;
18796;SDS011;9526;52.612;13.300;2023-07-24T10:43:00;2.72;;;2.03;;
18796;SDS011;9526;52.612;13.300;2023-07-24T10:45:37;4.25;;;2.20;;
18796;SDS011;9526;52.612;13.300;2023-07-24T10:48:05;2.00;;;1.65;;
18796;SDS011;9526;52.612;13.300;2023-07-24T10:50:36;2.83;;;2.00;;
18796;SDS011;9526;52.612;13.300;2023-07-24T10:53:01;3.78;;;2.30;;
18796;SDS011;9526;52.612;13.300;2023-07-24T10:55:25;3.35;;;1.70;;
18796;SDS011;9526;52.612;13.300;2023-07-24T10:57:48;3.30;;;1.85;;
18796;SDS011;9526;52.612;13.300;2023-07-24T11:00:17;2.90;;;2.28;;
18796;SDS011;9526;52.612;13.300;2023-07-24T11:02:41;3.83;;;2.17;;
18796;SDS011;9526;52.612;13.300;2023-07-24T11:05:05;3.35;;;2.35;;
18796;SDS011;9526;52.612;13.300;2023-07-24T11:07:33;2.75;;;2.08;;
18796;SDS011;9526;52.612;13.300;2023-07-24T11:09:57;3.53;;;1.92;;
18796;SDS011;9526;52.612;13.300;2023-07-24T11:12:21;5.25;;;2.47;;
18796;SDS011;9526;52.612;13.300;2023-07-24T11:14:48;4.75;;;2.75;;
18796;SDS011;9526;52.612;13.300;2023-07-24T11:17:14;3.88;;;2.40;;
18796;SDS011;9526;52.612;13.300;2023-07-24T11:19:37;3.45;;;2.53;;
18796;SDS011;9526;52.612;13.300;2023-07-24T11:22:01;4.90;;;2.22;;
18796;SDS011;9526;52.612;13.300;2023-07-24T11:24:25;4.03;;;2.60;;
18796;SDS011;9526;52.612;13.300;2023-07-24T11:26:50;4.75;;;2.75;;
18796;SDS011;9526;52.612;13.300;2023-07-24T11:29:15;3.88;;;2.53;;
18796;SDS011;9526;52.612;13.300;2023-07-24T11:31:38;5.13;;;2.78;;
18796;SDS011;9526;52.612;13.300;2023-07-24T11:34:04;3.42;;;2.30;;
18796;SDS011;9526;52.612;13.300;2023-07-24T11:36:28;5.20;;;2.80;;
18796;SDS011;9526;52.612;13.300;2023-07-24T11:38:52;3.83;;;2.50;;
18796;SDS011;9526;52.612;13.300;2023-07-24T11:41:16;4.07;;;2.50;;
18796;SDS011;9526;52.612;13.300;2023-07-24T11:43:45;3.90;;;2.72;;
18796;SDS011;9526;52.612;13.300;2023-07-24T11:46:10;4.10;;;2.30;;
18796;SDS011;9526;52.612;13.300;2023-07-24T11:48:33;5.35;;;2.33;;
18796;SDS011;9526;52.612;13.300;2023-07-24T11:51:06;12.50;;;3.15;;
18796;SDS011;9526;52.612;13.300;2023-07-24T11:53:30;5.22;;;2.80;;
18796;SDS011;9526;52.612;13.300;2023-07-24T11:55:55;4.55;;;2.80;;
18796;SDS011;9526;52.612;13.300;2023-07-24T11:58:21;6.95;;;3.25;;
18796;SDS011;9526;52.612;13.300;2023-07-24T12:00:48;3.83;;;2.70;;
18796;SDS011;9526;52.612;13.300;2023-07-24T12:03:13;4.93;;;3.10;;
18796;SDS011;9526;52.612;13.300;2023-07-24T12:05:38;8.38;;;3.38;;
18796;SDS011;9526;52.612;13.300;2023-07-24T12:08:04;6.43;;;3.20;;
18796;SDS011;9526;52.612;13.300;2023-07-24T12:10:28;6.18;;;3.30;;
18796;SDS011;9526;52.612;13.300;2023-07-24T12:12:52;8.20;;;3.42;;
18796;SDS011;9526;52.612;13.300;2023-07-24T12:15:17;5.22;;;3.13;;
18796;SDS011;9526;52.612;13.300;2023-07-24T12:17:41;4.50;;;2.83;;
18796;SDS011;9526;52.612;13.300;2023-07-24T12:20:06;3.95;;;2.83;;
18796;SDS011;9526;52.612;13.300;2023-07-24T12:22:31;5.22;;;3.10;;
18796;SDS011;9526;52.612;13.300;2023-07-24T12:24:57;6.45;;;2.72;;
18796;SDS011;9526;52.612;13.300;2023-07-24T12:27:20;4.97;;;2.95;;
18796;SDS011;9526;52.612;13.300;2023-07-24T12:29:44;4.63;;;2.78;;
18796;SDS011;9526;52.612;13.300;2023-07-24T12:32:08;4.05;;;2.70;;
18796;SDS011;9526;52.612;13.300;2023-07-24T12:34:32;5.53;;;3.08;;
18796;SDS011;9526;52.612;13.300;2023-07-24T12:36:55;8.43;;;3.35;;
18796;SDS011;9526;52.612;13.300;2023-07-24T12:39:22;4.55;;;3.00;;
18796;SDS011;9526;52.612;13.300;2023-07-24T12:41:47;5.45;;;2.95;;
18796;SDS011;9526;52.612;13.300;2023-07-24T12:44:11;4.30;;;2.70;;
18796;SDS011;9526;52.612;13.300;2023-07-24T12:46:34;3.88;;;2.70;;
18796;SDS011;9526;52.612;13.300;2023-07-24T12:48:58;3.72;;;2.50;;
18796;SDS011;9526;52.612;13.300;2023-07-24T12:51:22;4.55;;;2.00;;
18796;SDS011;9526;52.612;13.300;2023-07-24T12:53:45;4.30;;;2.53;;
18796;SDS011;9526;52.612;13.300;2023-07-24T12:56:27;8.88;;;2.75;;
18796;SDS011;9526;52.612;13.300;2023-07-24T12:58:52;4.60;;;2.70;;
18796;SDS011;9526;52.612;13.300;2023-07-24T13:01:16;5.72;;;2.50;;
18796;SDS011;9526;52.612;13.300;2023-07-24T13:03:40;5.20;;;2.40;;
18796;SDS011;9526;52.612;13.300;2023-07-24T13:06:03;3.60;;;2.50;;
18796;SDS011;9526;52.612;13.300;2023-07-24T13:08:27;3.72;;;2.15;;
18796;SDS011;9526;52.612;13.300;2023-07-24T13:10:51;3.17;;;2.17;;
18796;SDS011;9526;52.612;13.300;2023-07-24T13:13:14;3.80;;;2.10;;
18796;SDS011;9526;52.612;13.300;2023-07-24T13:15:40;3.53;;;2.15;;
18796;SDS011;9526;52.612;13.300;2023-07-24T13:18:03;4.82;;;2.17;;
18796;SDS011;9526;52.612;13.300;2023-07-24T13:20:47;3.95;;;2.10;;
18796;SDS011;9526;52.612;13.300;2023-07-24T13:23:11;2.50;;;1.83;;
18796;SDS011;9526;52.612;13.300;2023-07-24T13:25:35;3.42;;;2.10;;
18796;SDS011;9526;52.612;13.300;2023-07-24T13:27:59;2.92;;;2.20;;
18796;SDS011;9526;52.612;13.300;2023-07-24T13:30:22;3.08;;;2.30;;
18796;SDS011;9526;52.612;13.300;2023-07-24T13:32:48;3.72;;;2.30;;
18796;SDS011;9526;52.612;13.300;2023-07-24T13:35:11;3.70;;;2.10;;
18796;SDS011;9526;52.612;13.300;2023-07-24T13:37:36;4.47;;;2.20;;
18796;SDS011;9526;52.612;13.300;2023-07-24T13:40:00;2.65;;;1.88;;
18796;SDS011;9526;52.612;13.300;2023-07-24T13:42:24;3.88;;;2.00;;
18796;SDS011;9526;52.612;13.300;2023-07-24T13:44:47;2.40;;;1.83;;
18796;SDS011;9526;52.612;13.300;2023-07-24T13:47:12;3.50;;;2.20;;
18796;SDS011;9526;52.612;13.300;2023-07-24T13:49:37;5.00;;;1.90;;
18796;SDS011;9526;52.612;13.300;2023-07-24T13:52:01;2.90;;;2.00;;
18796;SDS011;9526;52.612;13.300;2023-07-24T13:54:24;2.85;;;2.00;;
18796;SDS011;9526;52.612;13.300;2023-07-24T13:56:48;2.80;;;1.85;;
18796;SDS011;9526;52.612;13.300;2023-07-24T13:59:12;2.72;;;1.80;;
18796;SDS011;9526;52.612;13.300;2023-07-24T14:01:36;3.10;;;1.75;;
18796;SDS011;9526;52.612;13.300;2023-07-24T14:04:00;3.17;;;1.90;;
18796;SDS011;9526;52.612;13.300;2023-07-24T14:06:25;2.72;;;1.90;;
18796;SDS011;9526;52.612;13.300;2023-07-24T14:08:49;3.53;;;2.10;;
18796;SDS011;9526;52.612;13.300;2023-07-24T14:11:12;9.00;;;2.00;;
18796;SDS011;9526;52.612;13.300;2023-07-24T14:13:36;2.60;;;1.83;;
18796;SDS011;9526;52.612;13.300;2023-07-24T14:16:00;4.10;;;2.10;;
18796;SDS011;9526;52.612;13.300;2023-07-24T14:18:24;3.40;;;2.00;;
18796;SDS011;9526;52.612;13.300;2023-07-24T14:20:47;3.03;;;1.98;;
18796;SDS011;9526;52.612;13.300;2023-07-24T14:23:15;3.03;;;1.88;;
18796;SDS011;9526;52.612;13.300;2023-07-24T14:25:38;2.40;;;1.75;;
18796;SDS011;9526;52.612;13.300;2023-07-24T14:28:02;3.92;;;2.40;;
18796;SDS011;9526;52.612;13.300;2023-07-24T14:30:26;2.28;;;1.80;;
18796;SDS011;9526;52.612;13.300;2023-07-24T14:32:50;2.38;;;1.90;;